sensor_id;sensor_type;location;lat;lon;timestamp;pressure;altitude;pressure_sealevel;temperature;humidity
3096;BME280;1558;42.700;23.360;2024-01-30T00:01:09;97295.38;;;-0.22;88.16
3096;BME280;1558;42.700;23.360;2024-01-30T00:03:38;97289.84;;;-0.20;89.02
3096;BME280;1558;42.700;23.360;2024-01-30T00:06:07;97288.38;;;-0.16;88.70
3096;BME280;1558;42.700;23.360;2024-01-30T00:08:37;97286.59;;;-0.22;88.64
3096;BME280;1558;42.700;23.360;2024-01-30T00:11:05;97289.84;;;-0.20;88.65
3096;BME280;1558;42.700;23.360;2024-01-30T00:13:35;97292.91;;;-0.23;88.23
3096;BME280;1558;42.700;23.360;2024-01-30T00:16:04;97292.38;;;-0.32;88.38
3096;BME280;1558;42.700;23.360;2024-01-30T00:18:33;97296.84;;;-0.32;88.38
3096;BME280;1558;42.700;23.360;2024-01-30T00:21:01;97296.44;;;-0.29;88.59
3096;BME280;1558;42.700;23.360;2024-01-30T00:23:29;97300.09;;;-0.30;88.26
3096;BME280;1558;42.700;23.360;2024-01-30T00:25:59;97282.22;;;-0.41;88.38
3096;BME280;1558;42.700;23.360;2024-01-30T00:28:27;97296.47;;;-0.36;87.90
3096;BME280;1558;42.700;23.360;2024-01-30T00:30:55;97292.84;;;-0.41;88.08
3096;BME280;1558;42.700;23.360;2024-01-30T00:33:23;97298.94;;;-0.41;88.18
3096;BME280;1558;42.700;23.360;2024-01-30T00:35:52;97284.69;;;-0.46;87.82
3096;BME280;1558;42.700;23.360;2024-01-30T00:38:20;97299.75;;;-0.40;88.09
3096;BME280;1558;42.700;23.360;2024-01-30T00:40:48;97294.41;;;-0.34;88.04
3096;BME280;1558;42.700;23.360;2024-01-30T00:43:18;97292.78;;;-0.35;88.05
3096;BME280;1558;42.700;23.360;2024-01-30T00:45:46;97288.34;;;-0.41;88.04
3096;BME280;1558;42.700;23.360;2024-01-30T00:48:15;97247.13;;;-0.68;87.67
3096;BME280;1558;42.700;23.360;2024-01-30T00:50:43;97297.09;;;-0.40;87.91
3096;BME280;1558;42.700;23.360;2024-01-30T00:53:12;97301.59;;;-0.41;87.97
3096;BME280;1558;42.700;23.360;2024-01-30T00:55:40;97292.41;;;-0.38;88.27
3096;BME280;1558;42.700;23.360;2024-01-30T00:58:08;97292.41;;;-0.38;88.26
3096;BME280;1558;42.700;23.360;2024-01-30T01:00:38;97296.06;;;-0.39;88.29
3096;BME280;1558;42.700;23.360;2024-01-30T01:03:06;97298.19;;;-0.48;88.01
3096;BME280;1558;42.700;23.360;2024-01-30T01:05:35;97293.66;;;-0.47;88.01
3096;BME280;1558;42.700;23.360;2024-01-30T01:08:04;97288.81;;;-0.50;88.09
3096;BME280;1558;42.700;23.360;2024-01-30T01:10:32;97295.53;;;-0.54;88.39
3096;BME280;1558;42.700;23.360;2024-01-30T01:13:00;97292.09;;;-0.55;88.31
3096;BME280;1558;42.700;23.360;2024-01-30T01:15:28;97299.41;;;-0.57;88.37
3096;BME280;1558;42.700;23.360;2024-01-30T01:17:58;97285.03;;;-0.68;88.54
3096;BME280;1558;42.700;23.360;2024-01-30T01:20:26;97298.69;;;-0.71;88.59
3096;BME280;1558;42.700;23.360;2024-01-30T01:22:54;97309.44;;;-0.59;89.07
3096;BME280;1558;42.700;23.360;2024-01-30T01:25:24;97293.72;;;-0.54;89.48
3096;BME280;1558;42.700;23.360;2024-01-30T01:27:52;97299.00;;;-0.54;88.96
3096;BME280;1558;42.700;23.360;2024-01-30T01:30:21;97294.56;;;-0.60;88.77
3096;BME280;1558;42.700;23.360;2024-01-30T01:32:49;97284.63;;;-0.64;88.85
3096;BME280;1558;42.700;23.360;2024-01-30T01:35:24;97293.06;;;-0.49;89.05
3096;BME280;1558;42.700;23.360;2024-01-30T01:37:52;97298.00;;;-0.53;89.26
3096;BME280;1558;42.700;23.360;2024-01-30T01:40:23;97300.41;;;-0.51;89.13
3096;BME280;1558;42.700;23.360;2024-01-30T01:42:52;97149.97;;;-1.43;89.07
3096;BME280;1558;42.700;23.360;2024-01-30T01:45:20;97302.91;;;-0.56;88.65
3096;BME280;1558;42.700;23.360;2024-01-30T01:47:50;97281.56;;;-0.68;88.91
3096;BME280;1558;42.700;23.360;2024-01-30T01:50:24;97287.41;;;-0.53;89.16
3096;BME280;1558;42.700;23.360;2024-01-30T01:52:53;97290.28;;;-0.61;89.00
3096;BME280;1558;42.700;23.360;2024-01-30T01:55:24;97294.94;;;-0.56;89.26
3096;BME280;1558;42.700;23.360;2024-01-30T01:57:54;97305.59;;;-0.63;89.14
3096;BME280;1558;42.700;23.360;2024-01-30T02:00:22;97307.25;;;-0.75;89.45
3096;BME280;1558;42.700;23.360;2024-01-30T02:02:51;97305.63;;;-0.70;89.55
3096;BME280;1558;42.700;23.360;2024-01-30T02:05:22;97307.41;;;-0.63;89.88
3096;BME280;1558;42.700;23.360;2024-01-30T02:07:52;97309.25;;;-0.64;89.83
3096;BME280;1558;42.700;23.360;2024-01-30T02:10:20;97312.88;;;-0.58;89.94
3096;BME280;1558;42.700;23.360;2024-01-30T02:12:49;97303.06;;;-0.51;90.24
3096;BME280;1558;42.700;23.360;2024-01-30T02:15:17;97303.28;;;-0.53;90.02
3096;BME280;1558;42.700;23.360;2024-01-30T02:17:46;97309.81;;;-0.55;89.91
3096;BME280;1558;42.700;23.360;2024-01-30T02:20:14;97308.00;;;-0.61;89.64
3096;BME280;1558;42.700;23.360;2024-01-30T02:22:44;97301.88;;;-0.55;89.85
3096;BME280;1558;42.700;23.360;2024-01-30T02:25:12;97305.53;;;-0.56;89.69
3096;BME280;1558;42.700;23.360;2024-01-30T02:27:41;97298.97;;;-0.47;89.31
3096;BME280;1558;42.700;23.360;2024-01-30T02:30:10;97291.47;;;-0.50;89.16
3096;BME280;1558;42.700;23.360;2024-01-30T02:32:39;97301.78;;;-0.42;88.27
3096;BME280;1558;42.700;23.360;2024-01-30T02:35:07;97300.78;;;-0.41;88.41
3096;BME280;1558;42.700;23.360;2024-01-30T02:37:35;97286.75;;;-0.48;88.10
3096;BME280;1558;42.700;23.360;2024-01-30T02:40:06;97295.31;;;-0.46;88.32
3096;BME280;1558;42.700;23.360;2024-01-30T02:42:35;97300.97;;;-0.36;88.15
3096;BME280;1558;42.700;23.360;2024-01-30T02:45:03;97303.34;;;-0.28;87.98
3096;BME280;1558;42.700;23.360;2024-01-30T02:47:32;97302.56;;;-0.29;87.80
3096;BME280;1558;42.700;23.360;2024-01-30T02:50:00;97309.47;;;-0.28;87.55
3096;BME280;1558;42.700;23.360;2024-01-30T02:52:29;97306.63;;;-0.26;87.32
3096;BME280;1558;42.700;23.360;2024-01-30T02:54:57;97285.47;;;-0.39;87.00
3096;BME280;1558;42.700;23.360;2024-01-30T02:57:27;97304.97;;;-0.27;86.82
3096;BME280;1558;42.700;23.360;2024-01-30T02:59:55;97284.66;;;-0.40;86.78
3096;BME280;1558;42.700;23.360;2024-01-30T03:02:23;97300.44;;;-0.20;86.71
3096;BME280;1558;42.700;23.360;2024-01-30T03:04:51;97306.63;;;-0.26;86.09
3096;BME280;1558;42.700;23.360;2024-01-30T03:07:20;97242.66;;;-0.68;85.97
3096;BME280;1558;42.700;23.360;2024-01-30T03:09:48;97287.13;;;-0.45;85.83
3096;BME280;1558;42.700;23.360;2024-01-30T03:12:17;97294.03;;;-0.37;85.96
3096;BME280;1558;42.700;23.360;2024-01-30T03:14:46;97296.63;;;-0.31;85.83
3096;BME280;1558;42.700;23.360;2024-01-30T03:17:14;97292.75;;;-0.28;86.03
3096;BME280;1558;42.700;23.360;2024-01-30T03:19:42;97294.53;;;-0.22;85.76
3096;BME280;1558;42.700;23.360;2024-01-30T03:22:11;97299.56;;;-0.14;85.67
3096;BME280;1558;42.700;23.360;2024-01-30T03:24:39;97278.66;;;-0.22;85.49
3096;BME280;1558;42.700;23.360;2024-01-30T03:27:07;97231.53;;;-0.51;85.02
3096;BME280;1558;42.700;23.360;2024-01-30T03:29:36;97304.03;;;-0.08;84.96
3096;BME280;1558;42.700;23.360;2024-01-30T03:32:06;97281.00;;;-0.14;84.48
3096;BME280;1558;42.700;23.360;2024-01-30T03:34:34;97287.97;;;-0.13;84.52
3096;BME280;1558;42.700;23.360;2024-01-30T03:37:02;97288.97;;;-0.14;84.11
3096;BME280;1558;42.700;23.360;2024-01-30T03:39:31;97286.88;;;-0.06;84.49
3096;BME280;1558;42.700;23.360;2024-01-30T03:41:59;97270.63;;;-0.16;83.89
3096;BME280;1558;42.700;23.360;2024-01-30T03:44:27;97277.34;;;-0.13;83.62
3096;BME280;1558;42.700;23.360;2024-01-30T03:46:55;97281.59;;;-0.06;83.29
3096;BME280;1558;42.700;23.360;2024-01-30T03:49:25;97275.09;;;-0.10;83.01
3096;BME280;1558;42.700;23.360;2024-01-30T03:51:53;97280.75;;;-0.06;83.03
3096;BME280;1558;42.700;23.360;2024-01-30T03:54:22;97268.81;;;-0.15;83.16
3096;BME280;1558;42.700;23.360;2024-01-30T03:56:50;97273.13;;;-0.21;82.59
3096;BME280;1558;42.700;23.360;2024-01-30T03:59:19;97271.34;;;-0.33;82.74
3096;BME280;1558;42.700;23.360;2024-01-30T04:01:51;97270.75;;;-0.35;83.01
3096;BME280;1558;42.700;23.360;2024-01-30T04:04:19;97270.75;;;-0.35;83.12
3096;BME280;1558;42.700;23.360;2024-01-30T04:06:49;97274.81;;;-0.33;83.12
3096;BME280;1558;42.700;23.360;2024-01-30T04:09:17;97269.16;;;-0.36;83.29
3096;BME280;1558;42.700;23.360;2024-01-30T04:11:45;97264.50;;;-0.47;83.41
3096;BME280;1558;42.700;23.360;2024-01-30T04:14:14;97269.81;;;-0.47;83.20
3096;BME280;1558;42.700;23.360;2024-01-30T04:16:42;97276.56;;;-0.51;83.47
3096;BME280;1558;42.700;23.360;2024-01-30T04:19:10;97277.78;;;-0.47;83.63
3096;BME280;1558;42.700;23.360;2024-01-30T04:21:38;97274.16;;;-0.53;83.69
3096;BME280;1558;42.700;23.360;2024-01-30T04:24:08;97272.47;;;-0.47;84.23
3096;BME280;1558;42.700;23.360;2024-01-30T04:26:36;97276.63;;;-0.58;83.94
3096;BME280;1558;42.700;23.360;2024-01-30T04:29:04;97283.97;;;-0.67;84.31
3096;BME280;1558;42.700;23.360;2024-01-30T04:31:32;97241.72;;;-0.86;84.84
3096;BME280;1558;42.700;23.360;2024-01-30T04:34:01;97291.34;;;-0.69;84.79
3096;BME280;1558;42.700;23.360;2024-01-30T04:36:29;97286.47;;;-0.72;85.03
3096;BME280;1558;42.700;23.360;2024-01-30T04:38:57;97275.88;;;-0.72;85.39
3096;BME280;1558;42.700;23.360;2024-01-30T04:41:27;97288.69;;;-0.62;85.27
3096;BME280;1558;42.700;23.360;2024-01-30T04:43:58;97297.59;;;-0.56;85.60
3096;BME280;1558;42.700;23.360;2024-01-30T04:46:26;97288.38;;;-0.47;85.70
3096;BME280;1558;42.700;23.360;2024-01-30T04:48:55;97293.66;;;-0.47;85.55
3096;BME280;1558;42.700;23.360;2024-01-30T04:51:23;97285.72;;;-0.47;85.17
3096;BME280;1558;42.700;23.360;2024-01-30T04:53:51;97305.31;;;-0.48;84.87
3096;BME280;1558;42.700;23.360;2024-01-30T04:56:20;97303.06;;;-0.51;85.19
3096;BME280;1558;42.700;23.360;2024-01-30T04:58:50;97302.13;;;-0.63;84.87
3096;BME280;1558;42.700;23.360;2024-01-30T05:01:18;97315.97;;;-0.61;85.30
3096;BME280;1558;42.700;23.360;2024-01-30T05:03:46;97308.44;;;-0.64;85.04
3096;BME280;1558;42.700;23.360;2024-01-30T05:06:24;97303.56;;;-0.68;85.38
3096;BME280;1558;42.700;23.360;2024-01-30T05:08:52;97324.75;;;-0.68;85.72
3096;BME280;1558;42.700;23.360;2024-01-30T05:11:20;97314.13;;;-0.61;85.63
3096;BME280;1558;42.700;23.360;2024-01-30T05:13:50;97298.03;;;-0.59;85.54
3096;BME280;1558;42.700;23.360;2024-01-30T05:16:18;97308.38;;;-0.51;85.55
3096;BME280;1558;42.700;23.360;2024-01-30T05:18:46;97260.88;;;-0.84;85.17
3096;BME280;1558;42.700;23.360;2024-01-30T05:21:14;97293.97;;;-0.69;84.84
3096;BME280;1558;42.700;23.360;2024-01-30T05:23:43;97309.22;;;-0.57;85.15
3096;BME280;1558;42.700;23.360;2024-01-30T05:26:11;97315.41;;;-0.70;84.92
3096;BME280;1558;42.700;23.360;2024-01-30T05:28:39;97295.97;;;-0.95;84.78
3096;BME280;1558;42.700;23.360;2024-01-30T05:31:09;97307.13;;;-0.87;85.19
3096;BME280;1558;42.700;23.360;2024-01-30T05:33:37;97307.75;;;-0.91;85.53
3096;BME280;1558;42.700;23.360;2024-01-30T05:36:06;97298.00;;;-1.04;85.59
3096;BME280;1558;42.700;23.360;2024-01-30T05:38:35;97314.28;;;-0.94;86.15
3096;BME280;1558;42.700;23.360;2024-01-30T05:41:03;97317.94;;;-0.95;86.07
3096;BME280;1558;42.700;23.360;2024-01-30T05:43:32;97315.34;;;-1.08;85.80
3096;BME280;1558;42.700;23.360;2024-01-30T05:46:00;97302.53;;;-1.17;85.63
3096;BME280;1558;42.700;23.360;2024-01-30T05:48:30;97311.47;;;-1.05;86.02
3096;BME280;1558;42.700;23.360;2024-01-30T05:50:58;97311.22;;;-0.97;85.78
3096;BME280;1558;42.700;23.360;2024-01-30T05:53:26;97163.16;;;-1.94;85.51
3096;BME280;1558;42.700;23.360;2024-01-30T05:55:55;97312.63;;;-0.88;85.68
3096;BME280;1558;42.700;23.360;2024-01-30T05:58:23;97314.94;;;-0.60;85.46
3096;BME280;1558;42.700;23.360;2024-01-30T06:00:51;97319.56;;;-0.49;84.70
3096;BME280;1558;42.700;23.360;2024-01-30T06:03:19;97313.94;;;-0.28;84.05
3096;BME280;1558;42.700;23.360;2024-01-30T06:05:49;97319.78;;;-0.13;83.56
3096;BME280;1558;42.700;23.360;2024-01-30T06:08:17;97325.63;;;-0.05;82.61
3096;BME280;1558;42.700;23.360;2024-01-30T06:10:45;97321.41;;;-0.12;82.02
3096;BME280;1558;42.700;23.360;2024-01-30T06:13:14;97314.81;;;-0.03;82.57
3096;BME280;1558;42.700;23.360;2024-01-30T06:15:43;97327.91;;;0.66;82.52
3096;BME280;1558;42.700;23.360;2024-01-30T06:18:11;97320.13;;;1.07;81.16
3096;BME280;1558;42.700;23.360;2024-01-30T06:20:40;97325.81;;;1.29;79.00
3096;BME280;1558;42.700;23.360;2024-01-30T06:23:09;97325.25;;;1.86;79.66
3096;BME280;1558;42.700;23.360;2024-01-30T06:25:39;97320.69;;;2.05;77.17
3096;BME280;1558;42.700;23.360;2024-01-30T06:28:08;97318.31;;;2.50;76.10
3096;BME280;1558;42.700;23.360;2024-01-30T06:30:36;97155.69;;;1.59;74.24
3096;BME280;1558;42.700;23.360;2024-01-30T06:33:04;97321.84;;;2.85;72.07
3096;BME280;1558;42.700;23.360;2024-01-30T06:35:32;97309.56;;;3.35;71.50
3096;BME280;1558;42.700;23.360;2024-01-30T06:38:03;97280.34;;;3.40;69.54
3096;BME280;1558;42.700;23.360;2024-01-30T06:40:32;97317.63;;;3.92;68.69
3096;BME280;1558;42.700;23.360;2024-01-30T06:43:01;97319.03;;;4.11;66.00
3096;BME280;1558;42.700;23.360;2024-01-30T06:45:29;97321.00;;;4.16;65.52
3096;BME280;1558;42.700;23.360;2024-01-30T06:47:57;97309.34;;;4.38;63.91
3096;BME280;1558;42.700;23.360;2024-01-30T06:50:26;97312.66;;;3.84;62.41
3096;BME280;1558;42.700;23.360;2024-01-30T06:52:55;97325.34;;;3.77;63.18
3096;BME280;1558;42.700;23.360;2024-01-30T06:55:23;97322.38;;;3.90;62.36
3096;BME280;1558;42.700;23.360;2024-01-30T06:57:53;97322.47;;;3.67;61.37
3096;BME280;1558;42.700;23.360;2024-01-30T07:00:21;97330.19;;;4.08;62.26
3096;BME280;1558;42.700;23.360;2024-01-30T07:02:50;97334.59;;;4.47;60.66
3096;BME280;1558;42.700;23.360;2024-01-30T07:05:18;97335.56;;;4.41;59.56
3096;BME280;1558;42.700;23.360;2024-01-30T07:07:48;97330.31;;;4.79;59.09
3096;BME280;1558;42.700;23.360;2024-01-30T07:10:16;97313.06;;;4.87;59.38
3096;BME280;1558;42.700;23.360;2024-01-30T07:12:45;97325.00;;;5.18;58.19
3096;BME280;1558;42.700;23.360;2024-01-30T07:15:14;97320.50;;;4.68;56.98
3096;BME280;1558;42.700;23.360;2024-01-30T07:17:46;97320.34;;;4.75;57.53
3096;BME280;1558;42.700;23.360;2024-01-30T07:20:14;97325.09;;;5.28;56.35
3096;BME280;1558;42.700;23.360;2024-01-30T07:22:44;97318.78;;;5.77;56.20
3096;BME280;1558;42.700;23.360;2024-01-30T07:25:12;97292.50;;;5.31;53.67
3096;BME280;1558;42.700;23.360;2024-01-30T07:27:40;97323.19;;;3.90;53.56
3096;BME280;1558;42.700;23.360;2024-01-30T07:30:09;97324.72;;;3.58;56.54
3096;BME280;1558;42.700;23.360;2024-01-30T07:32:39;97316.63;;;3.81;57.98
3096;BME280;1558;42.700;23.360;2024-01-30T07:35:07;97325.63;;;4.53;57.00
3096;BME280;1558;42.700;23.360;2024-01-30T07:37:36;97319.03;;;5.32;56.34
3096;BME280;1558;42.700;23.360;2024-01-30T07:40:05;97324.47;;;5.21;54.59
3096;BME280;1558;42.700;23.360;2024-01-30T07:42:34;97312.56;;;5.50;53.96
3096;BME280;1558;42.700;23.360;2024-01-30T07:45:02;97324.44;;;5.59;52.96
3096;BME280;1558;42.700;23.360;2024-01-30T07:47:30;97317.91;;;5.50;52.47
3096;BME280;1558;42.700;23.360;2024-01-30T07:50:01;97316.53;;;5.26;54.04
3096;BME280;1558;42.700;23.360;2024-01-30T07:52:29;97317.53;;;5.20;52.68
3096;BME280;1558;42.700;23.360;2024-01-30T07:54:58;97309.44;;;5.80;52.94
3096;BME280;1558;42.700;23.360;2024-01-30T07:57:27;97311.72;;;5.71;51.87
3096;BME280;1558;42.700;23.360;2024-01-30T07:59:55;97317.59;;;5.46;51.75
3096;BME280;1558;42.700;23.360;2024-01-30T08:02:26;97310.34;;;5.25;52.20
3096;BME280;1558;42.700;23.360;2024-01-30T08:04:54;97303.59;;;5.39;52.57
3096;BME280;1558;42.700;23.360;2024-01-30T08:07:24;97315.03;;;5.78;51.81
3096;BME280;1558;42.700;23.360;2024-01-30T08:09:52;97320.88;;;5.75;50.70
3096;BME280;1558;42.700;23.360;2024-01-30T08:12:20;97282.81;;;6.22;51.61
3096;BME280;1558;42.700;23.360;2024-01-30T08:14:49;97317.00;;;6.68;49.63
3096;BME280;1558;42.700;23.360;2024-01-30T08:17:17;97320.53;;;6.42;49.46
3096;BME280;1558;42.700;23.360;2024-01-30T08:19:45;97311.53;;;6.58;49.87
3096;BME280;1558;42.700;23.360;2024-01-30T08:22:13;97321.13;;;6.49;49.27
3096;BME280;1558;42.700;23.360;2024-01-30T08:24:43;97315.72;;;5.90;49.04
3096;BME280;1558;42.700;23.360;2024-01-30T08:27:11;97318.47;;;6.54;49.27
3096;BME280;1558;42.700;23.360;2024-01-30T08:29:39;97316.78;;;6.43;49.16
3096;BME280;1558;42.700;23.360;2024-01-30T08:32:08;97328.47;;;6.63;48.56
3096;BME280;1558;42.700;23.360;2024-01-30T08:34:36;97321.16;;;6.22;48.54
3096;BME280;1558;42.700;23.360;2024-01-30T08:37:05;97328.91;;;6.50;48.37
3096;BME280;1558;42.700;23.360;2024-01-30T08:39:33;97326.78;;;6.26;47.95
3096;BME280;1558;42.700;23.360;2024-01-30T08:42:03;97328.31;;;6.17;48.25
3096;BME280;1558;42.700;23.360;2024-01-30T08:44:31;97331.31;;;6.52;49.36
3096;BME280;1558;42.700;23.360;2024-01-30T08:46:59;97326.00;;;6.25;47.42
3096;BME280;1558;42.700;23.360;2024-01-30T08:49:26;97334.03;;;5.55;49.49
3096;BME280;1558;42.700;23.360;2024-01-30T08:51:55;97327.91;;;5.81;49.81
3096;BME280;1558;42.700;23.360;2024-01-30T08:54:24;97327.81;;;6.20;50.09
3096;BME280;1558;42.700;23.360;2024-01-30T08:56:52;97326.41;;;6.75;48.94
3096;BME280;1558;42.700;23.360;2024-01-30T08:59:24;97324.72;;;6.64;48.41
3096;BME280;1558;42.700;23.360;2024-01-30T09:01:52;97330.03;;;6.91;48.28
3096;BME280;1558;42.700;23.360;2024-01-30T09:04:37;97335.00;;;7.14;48.74
3096;BME280;1558;42.700;23.360;2024-01-30T09:07:06;97322.03;;;6.96;47.51
3096;BME280;1558;42.700;23.360;2024-01-30T09:09:37;97319.00;;;5.97;49.41
3096;BME280;1558;42.700;23.360;2024-01-30T09:12:07;97331.50;;;6.72;49.43
3096;BME280;1558;42.700;23.360;2024-01-30T09:14:38;97324.41;;;6.93;48.83
3096;BME280;1558;42.700;23.360;2024-01-30T09:17:07;97333.66;;;6.75;48.73
3096;BME280;1558;42.700;23.360;2024-01-30T09:19:35;97326.63;;;6.69;49.70
3096;BME280;1558;42.700;23.360;2024-01-30T09:22:04;97317.31;;;6.76;49.92
3096;BME280;1558;42.700;23.360;2024-01-30T09:24:32;97315.38;;;7.09;49.38
3096;BME280;1558;42.700;23.360;2024-01-30T09:27:00;97321.97;;;6.91;48.75
3096;BME280;1558;42.700;23.360;2024-01-30T09:29:28;97316.22;;;7.14;49.78
3096;BME280;1558;42.700;23.360;2024-01-30T09:31:58;97308.22;;;6.82;49.43
3096;BME280;1558;42.700;23.360;2024-01-30T09:34:26;97304.56;;;5.98;49.44
3096;BME280;1558;42.700;23.360;2024-01-30T09:36:54;97321.16;;;5.14;50.67
3096;BME280;1558;42.700;23.360;2024-01-30T09:39:23;97314.47;;;4.56;53.17
3096;BME280;1558;42.700;23.360;2024-01-30T09:41:59;97303.44;;;4.36;53.54
3096;BME280;1558;42.700;23.360;2024-01-30T09:44:30;97302.72;;;5.12;53.43
3096;BME280;1558;42.700;23.360;2024-01-30T09:47:00;97302.59;;;6.16;52.79
3096;BME280;1558;42.700;23.360;2024-01-30T09:49:32;97215.00;;;6.53;52.21
3096;BME280;1558;42.700;23.360;2024-01-30T09:52:01;97299.16;;;6.52;49.16
3096;BME280;1558;42.700;23.360;2024-01-30T09:54:31;97254.59;;;4.74;51.09
3096;BME280;1558;42.700;23.360;2024-01-30T09:57:03;97312.41;;;4.97;51.72
3096;BME280;1558;42.700;23.360;2024-01-30T09:59:31;97312.50;;;4.52;52.92
3096;BME280;1558;42.700;23.360;2024-01-30T10:02:01;97314.19;;;4.25;53.86
3096;BME280;1558;42.700;23.360;2024-01-30T10:04:31;97315.13;;;4.02;54.69
3096;BME280;1558;42.700;23.360;2024-01-30T10:07:01;97308.00;;;3.63;54.88
3096;BME280;1558;42.700;23.360;2024-01-30T10:09:32;97295.63;;;3.73;55.13
3096;BME280;1558;42.700;23.360;2024-01-30T10:12:01;97301.81;;;3.90;55.87
3096;BME280;1558;42.700;23.360;2024-01-30T10:14:30;97297.09;;;4.09;56.35
3096;BME280;1558;42.700;23.360;2024-01-30T10:17:01;97302.03;;;5.22;55.84
3096;BME280;1558;42.700;23.360;2024-01-30T10:19:42;97287.47;;;6.04;52.51
3096;BME280;1558;42.700;23.360;2024-01-30T10:22:11;97299.88;;;6.74;50.72
3096;BME280;1558;42.700;23.360;2024-01-30T10:24:40;97306.31;;;6.41;49.55
3096;BME280;1558;42.700;23.360;2024-01-30T10:27:08;97298.34;;;5.71;51.06
3096;BME280;1558;42.700;23.360;2024-01-30T10:29:37;97295.56;;;6.09;51.03
3096;BME280;1558;42.700;23.360;2024-01-30T10:32:06;97296.09;;;6.38;50.87
3096;BME280;1558;42.700;23.360;2024-01-30T10:34:34;97261.88;;;6.19;49.59
3096;BME280;1558;42.700;23.360;2024-01-30T10:37:07;97300.81;;;5.99;50.19
3096;BME280;1558;42.700;23.360;2024-01-30T10:39:40;97238.34;;;5.67;50.26
3096;BME280;1558;42.700;23.360;2024-01-30T10:42:11;97287.09;;;6.86;50.60
3096;BME280;1558;42.700;23.360;2024-01-30T10:44:47;97292.66;;;6.43;49.57
3096;BME280;1558;42.700;23.360;2024-01-30T10:47:21;97290.47;;;6.40;49.35
3096;BME280;1558;42.700;23.360;2024-01-30T10:49:54;97269.47;;;6.27;49.64
3096;BME280;1558;42.700;23.360;2024-01-30T10:52:24;97263.16;;;6.43;49.36
3096;BME280;1558;42.700;23.360;2024-01-30T10:54:54;97267.06;;;6.62;49.49
3096;BME280;1558;42.700;23.360;2024-01-30T10:57:23;97267.75;;;6.47;49.05
3096;BME280;1558;42.700;23.360;2024-01-30T10:59:54;97263.19;;;6.79;49.05
3096;BME280;1558;42.700;23.360;2024-01-30T11:02:25;97258.63;;;6.43;49.40
3096;BME280;1558;42.700;23.360;2024-01-30T11:04:56;97263.84;;;7.07;49.48
3096;BME280;1558;42.700;23.360;2024-01-30T11:07:26;97108.25;;;5.66;49.60
3096;BME280;1558;42.700;23.360;2024-01-30T11:10:02;97261.31;;;6.85;49.30
3096;BME280;1558;42.700;23.360;2024-01-30T11:12:32;97262.25;;;7.06;49.46
3096;BME280;1558;42.700;23.360;2024-01-30T11:15:05;97254.63;;;6.46;48.76
3096;BME280;1558;42.700;23.360;2024-01-30T11:17:43;97250.47;;;5.96;50.29
3096;BME280;1558;42.700;23.360;2024-01-30T11:20:12;97254.00;;;5.54;50.41
3096;BME280;1558;42.700;23.360;2024-01-30T11:22:43;97251.63;;;5.14;52.27
3096;BME280;1558;42.700;23.360;2024-01-30T11:25:13;97255.06;;;5.31;52.37
3096;BME280;1558;42.700;23.360;2024-01-30T11:27:42;97248.88;;;5.52;51.75
3096;BME280;1558;42.700;23.360;2024-01-30T11:30:20;97255.13;;;5.36;52.01
3096;BME280;1558;42.700;23.360;2024-01-30T11:33:05;97247.09;;;4.21;51.92
3096;BME280;1558;42.700;23.360;2024-01-30T11:35:35;97265.13;;;4.47;53.50
3096;BME280;1558;42.700;23.360;2024-01-30T11:38:04;97257.94;;;4.31;53.07
3096;BME280;1558;42.700;23.360;2024-01-30T11:40:34;97253.97;;;4.00;54.09
3096;BME280;1558;42.700;23.360;2024-01-30T11:43:04;97254.63;;;4.24;54.29
3096;BME280;1558;42.700;23.360;2024-01-30T11:45:34;97247.53;;;4.85;54.48
3096;BME280;1558;42.700;23.360;2024-01-30T11:48:05;97255.91;;;4.05;53.76
3096;BME280;1558;42.700;23.360;2024-01-30T11:50:35;97253.16;;;4.17;54.80
3096;BME280;1558;42.700;23.360;2024-01-30T11:53:05;97241.78;;;4.76;54.72
3096;BME280;1558;42.700;23.360;2024-01-30T11:55:34;97244.03;;;4.46;54.35
3096;BME280;1558;42.700;23.360;2024-01-30T11:58:04;97252.59;;;4.48;55.02
3096;BME280;1558;42.700;23.360;2024-01-30T12:00:32;97240.22;;;3.92;54.75
3096;BME280;1558;42.700;23.360;2024-01-30T12:03:04;97233.03;;;3.64;56.37
3096;BME280;1558;42.700;23.360;2024-01-30T12:05:34;97223.31;;;4.36;56.40
3096;BME280;1558;42.700;23.360;2024-01-30T12:08:04;97208.28;;;4.30;54.67
3096;BME280;1558;42.700;23.360;2024-01-30T12:10:32;97202.50;;;4.38;55.51
3096;BME280;1558;42.700;23.360;2024-01-30T12:13:01;97200.13;;;5.23;54.61
3096;BME280;1558;42.700;23.360;2024-01-30T12:15:29;97204.03;;;5.86;53.68
3096;BME280;1558;42.700;23.360;2024-01-30T12:18:05;97206.81;;;6.33;52.19
3096;BME280;1558;42.700;23.360;2024-01-30T12:20:35;97188.31;;;6.73;51.32
3096;BME280;1558;42.700;23.360;2024-01-30T12:23:04;97184.88;;;6.82;50.41
3096;BME280;1558;42.700;23.360;2024-01-30T12:25:32;97196.88;;;6.70;49.78
3096;BME280;1558;42.700;23.360;2024-01-30T12:28:01;97211.69;;;5.77;49.46
3096;BME280;1558;42.700;23.360;2024-01-30T12:30:30;97190.25;;;5.24;51.57
3096;BME280;1558;42.700;23.360;2024-01-30T12:32:58;97191.97;;;5.62;52.44
3096;BME280;1558;42.700;23.360;2024-01-30T12:35:30;97173.53;;;6.24;52.04
3096;BME280;1558;42.700;23.360;2024-01-30T12:37:59;97186.34;;;6.17;50.00
3096;BME280;1558;42.700;23.360;2024-01-30T12:40:28;97177.28;;;6.23;50.24
3096;BME280;1558;42.700;23.360;2024-01-30T12:42:56;97128.41;;;6.05;50.36
3096;BME280;1558;42.700;23.360;2024-01-30T12:45:25;97182.16;;;5.94;50.07
3096;BME280;1558;42.700;23.360;2024-01-30T12:47:53;97129.88;;;5.86;49.89
3096;BME280;1558;42.700;23.360;2024-01-30T12:50:22;97178.66;;;5.93;50.20
3096;BME280;1558;42.700;23.360;2024-01-30T12:52:53;97172.63;;;6.08;50.12
3096;BME280;1558;42.700;23.360;2024-01-30T12:55:24;97180.06;;;6.01;50.61
3096;BME280;1558;42.700;23.360;2024-01-30T12:57:55;97168.03;;;6.03;50.53
3096;BME280;1558;42.700;23.360;2024-01-30T13:00:23;97166.00;;;6.16;51.08
3096;BME280;1558;42.700;23.360;2024-01-30T13:02:51;97142.63;;;5.79;50.67
3096;BME280;1558;42.700;23.360;2024-01-30T13:05:20;97138.06;;;6.11;51.86
3096;BME280;1558;42.700;23.360;2024-01-30T13:07:48;97158.34;;;6.34;50.56
3096;BME280;1558;42.700;23.360;2024-01-30T13:10:19;97159.97;;;5.98;51.51
3096;BME280;1558;42.700;23.360;2024-01-30T13:12:47;97155.97;;;6.01;51.25
3096;BME280;1558;42.700;23.360;2024-01-30T13:15:15;97144.69;;;5.99;50.96
3096;BME280;1558;42.700;23.360;2024-01-30T13:17:43;97157.13;;;6.15;51.21
3096;BME280;1558;42.700;23.360;2024-01-30T13:20:14;97145.16;;;6.28;50.50
3096;BME280;1558;42.700;23.360;2024-01-30T13:22:44;97146.50;;;6.77;50.96
3096;BME280;1558;42.700;23.360;2024-01-30T13:25:13;97157.00;;;6.37;49.89
3096;BME280;1558;42.700;23.360;2024-01-30T13:27:43;97144.06;;;6.24;50.99